Yatahey, New Mexico
Current Conditions -  °F | °C
As of 10:53 PM on Thursday 30 Oct 2014 (Local Time) from KGUP Reporting Station
Clear Clear  
Wind Chill: 43°   Ceiling: Unl
Heat Index: 43°   Visibility: 10mi
Dew Point: 18°   Wind: 0mph
Humidity: 37%   Direction: NA
Pressure: 30.31"   Gusts: NA
Location:  35.53°N, 108.74°W
Report Text: KGUP 310453Z AUTO 00000KT 10SM CLR 06/M08 A3031 RMK AO2 SLP195 T00611078
Loading
Personal Weather Stations






























Interactive Weather Map
Tropical Storm Tracking
New forecast layout! Learn more

10-Day Weather Forecast

Advertisements
Track Severe Weather on mobile